Time;durP1;ratioP1;P1;durP2;ratioP2;P2;SDS_P1;SDS_P2;PMS_P1;PMS_P2;Temp;Humidity;BMP_temperature;BMP_pressure;BME280_temperature;BME280_humidity;BME280_pressure;Samples;Min_cycle;Max_cycle;Signal;HPM_P1;HPM_P2
2023/04/25 00:00:10;;;;;;;21.80;8.00;;;;;;;12.38;45.03;99028.16;7342421;19;20332;-69
2023/04/25 00:02:39;;;;;;;15.85;7.13;;;;;;;12.32;45.18;99016.16;7340274;19;20011;-65
2023/04/25 00:05:04;;;;;;;11.70;6.28;;;;;;;12.35;45.12;99014.06;7342104;19;20014;-67
2023/04/25 00:07:31;;;;;;;20.70;6.72;;;;;;;12.41;45.18;99019.88;7342568;19;20490;-71
2023/04/25 00:09:56;;;;;;;13.48;7.28;;;;;;;12.40;45.22;99027.03;7343512;19;20022;-67
2023/04/25 00:12:22;;;;;;;16.90;7.53;;;;;;;12.40;45.14;99019.03;7342223;19;20014;-66
2023/04/25 00:14:49;;;;;;;14.55;7.40;;;;;;;12.46;45.41;99030.97;7343422;19;20021;-69
2023/04/25 00:17:14;;;;;;;13.18;6.07;;;;;;;12.47;45.49;99030.84;7343083;19;20094;-72
2023/04/25 00:19:39;;;;;;;13.70;7.05;;;;;;;12.52;45.62;99039.31;7341021;19;20011;-71
2023/04/25 00:22:05;;;;;;;15.02;5.88;;;;;;;12.53;45.65;99034.78;7340875;19;20032;-68
2023/04/25 00:24:30;;;;;;;10.32;5.53;;;;;;;12.62;45.32;99031.31;7347389;19;20022;-71
2023/04/25 00:26:54;;;;;;;13.25;6.30;;;;;;;12.61;45.54;99026.97;7346661;19;20021;-69
2023/04/25 00:29:19;;;;;;;11.07;5.60;;;;;;;12.56;45.99;99035.38;7348475;19;20013;-69
2023/04/25 00:31:44;;;;;;;11.50;5.65;;;;;;;12.65;45.71;99039.03;7344378;19;20044;-68
2023/04/25 00:34:08;;;;;;;10.90;4.88;;;;;;;12.84;45.12;99035.59;7341249;19;20388;-69
2023/04/25 00:36:34;;;;;;;15.27;5.00;;;;;;;12.97;45.24;99038.84;7342925;19;20037;-69
2023/04/25 00:38:58;;;;;;;10.02;5.45;;;;;;;13.04;45.14;99034.63;7346567;19;20026;-68
2023/04/25 00:41:25;;;;;;;12.88;6.28;;;;;;;13.04;45.32;99034.63;7340624;19;20500;-69
2023/04/25 00:43:51;;;;;;;9.40;5.50;;;;;;;13.05;45.24;99044.34;7340302;19;20010;-66
2023/04/25 00:46:16;;;;;;;7.68;5.00;;;;;;;13.03;45.32;99039.13;7341035;19;20007;-67
2023/04/25 00:48:41;;;;;;;10.20;5.35;;;;;;;12.97;45.48;99034.34;7342742;19;20015;-71
2023/04/25 00:51:06;;;;;;;14.68;6.43;;;;;;;13.02;45.35;99037.41;7340492;19;20015;-67
2023/04/25 00:53:32;;;;;;;11.73;6.13;;;;;;;13.06;45.29;99038.00;7340373;19;20094;-65
2023/04/25 00:55:56;;;;;;;10.30;5.70;;;;;;;13.04;45.38;99040.81;7340798;19;20010;-71
2023/04/25 00:58:22;;;;;;;14.10;6.03;;;;;;;13.01;45.66;99034.88;7340748;19;20007;-68
2023/04/25 01:00:49;;;;;;;14.80;6.30;;;;;;;12.97;45.91;99030.81;7340706;19;20010;-67
2023/04/25 01:03:16;;;;;;;10.15;5.63;;;;;;;12.99;45.62;99035.03;7346848;19;20015;-68
2023/04/25 01:05:41;;;;;;;13.85;5.47;;;;;;;12.99;45.66;99034.16;7342649;19;20081;-71
2023/04/25 01:08:07;;;;;;;14.05;6.13;;;;;;;12.93;45.94;99034.75;7342218;19;20014;-74
2023/04/25 01:10:31;;;;;;;12.68;5.28;;;;;;;12.91;45.84;99026.84;7346882;19;20350;-70
2023/04/25 01:12:56;;;;;;;8.05;5.15;;;;;;;12.95;45.84;99024.75;7348095;19;20018;-70
2023/04/25 01:15:20;;;;;;;13.05;6.60;;;;;;;12.96;45.72;99027.28;7342350;19;20018;-69
2023/04/25 01:17:46;;;;;;;9.38;5.57;;;;;;;12.96;45.93;99029.13;7341313;19;20007;-68
2023/04/25 01:20:11;;;;;;;15.43;6.63;;;;;;;12.96;45.91;99029.13;7341687;19;20003;-70
2023/04/25 01:22:36;;;;;;;14.90;6.13;;;;;;;12.96;45.93;99013.91;7341954;19;20014;-68
2023/04/25 01:25:01;;;;;;;13.02;6.25;;;;;;;13.00;45.88;99017.97;7341375;19;20073;-68
2023/04/25 01:27:29;;;;;;;11.02;5.78;;;;;;;13.00;46.21;99017.13;7342188;19;20021;-69
2023/04/25 01:29:55;;;;;;;11.70;5.53;;;;;;;13.06;46.08;99029.97;7342339;19;20019;-69
2023/04/25 01:32:22;;;;;;;15.18;5.45;;;;;;;13.08;45.86;99017.31;7339796;19;20006;-70
2023/04/25 01:34:47;;;;;;;13.60;6.55;;;;;;;13.05;46.20;99022.94;7341341;19;20029;-69
2023/04/25 01:37:12;;;;;;;12.18;6.22;;;;;;;13.06;46.08;99011.25;7341187;19;20007;-69
2023/04/25 01:39:36;;;;;;;18.83;6.53;;;;;;;13.05;45.97;99010.41;7340321;19;20042;-70
2023/04/25 01:42:01;;;;;;;9.80;5.80;;;;;;;13.03;46.25;99009.69;7341182;19;20015;-70
2023/04/25 01:44:26;;;;;;;10.20;6.40;;;;;;;13.02;46.33;99013.34;7341457;19;20110;-71
2023/04/25 01:46:54;;;;;;;15.63;6.70;;;;;;;13.06;46.02;99011.25;7341146;19;20010;-70
2023/04/25 01:49:18;;;;;;;10.70;5.68;;;;;;;13.07;46.09;99008.44;7345592;19;20404;-69
2023/04/25 01:51:44;;;;;;;14.10;6.65;;;;;;;13.06;46.03;99005.88;7341211;19;20464;-70
2023/04/25 01:54:10;;;;;;;11.60;5.32;;;;;;;13.06;46.25;99004.06;7340211;19;20106;-73
2023/04/25 01:56:39;;;;;;;13.88;6.50;;;;;;;13.05;46.54;99007.72;7341896;19;20011;-72
2023/04/25 01:59:06;;;;;;;14.15;6.90;;;;;;;13.04;46.53;99008.69;7341282;19;20021;-75
2023/04/25 02:01:49;;;;;;;16.75;6.78;;;;;;;13.00;46.63;99004.59;7347501;19;20018;-76
2023/04/25 02:04:21;;;;;;;11.82;6.63;;;;;;;13.03;46.47;99001.66;7350838;19;20470;-78
2023/04/25 02:06:46;;;;;;;17.48;6.43;;;;;;;13.04;46.69;99007.84;7345132;19;20010;-73
2023/04/25 02:09:11;;;;;;;12.90;6.47;;;;;;;13.04;46.55;99005.19;7347778;19;20011;-72
2023/04/25 02:11:40;;;;;;;10.88;6.32;;;;;;;13.07;46.67;99000.41;7346602;19;20029;-75
2023/04/25 02:14:37;;;;;;;11.77;6.88;;;;;;;13.11;47.08;98992.91;7342121;19;20509;-75
2023/04/25 02:17:14;;;;;;;13.48;6.95;;;;;;;13.15;46.66;98993.53;7341005;19;20014;-73
2023/04/25 02:19:38;;;;;;;16.52;6.10;;;;;;;13.18;46.79;98996.75;7341195;19;20048;-75
2023/04/25 02:22:05;;;;;;;10.65;6.07;;;;;;;13.20;46.78;98992.13;7341785;19;20014;-69
2023/04/25 02:24:31;;;;;;;19.67;6.85;;;;;;;13.24;46.64;98990.81;7345876;19;20089;-76
2023/04/25 02:26:56;;;;;;;20.77;7.65;;;;;;;13.29;46.00;98996.63;7347870;19;20039;-76
2023/04/25 02:29:21;;;;;;;15.77;6.20;;;;;;;13.33;46.00;99008.72;7346403;19;20011;-76
2023/04/25 02:31:45;;;;;;;16.75;6.97;;;;;;;13.33;45.97;98994.47;7346300;19;20035;-75
2023/04/25 02:34:10;;;;;;;11.30;7.03;;;;;;;13.33;45.90;99003.34;7346584;19;20015;-77
2023/04/25 02:36:36;;;;;;;38.78;7.72;;;;;;;13.40;46.30;98996.47;7344733;19;20019;-77
2023/04/25 02:39:02;;;;;;;18.73;6.93;;;;;;;13.27;46.60;99020.00;7340002;19;20134;-70
2023/04/25 02:41:27;;;;;;;15.13;6.90;;;;;;;13.15;46.73;99001.53;7337856;19;20485;-72
2023/04/25 02:43:53;;;;;;;16.45;8.10;;;;;;;13.20;46.50;99002.81;7341426;19;20013;-73
2023/04/25 02:46:18;;;;;;;17.58;7.95;;;;;;;13.18;46.54;99002.13;7343859;19;20010;-74
2023/04/25 02:48:45;;;;;;;13.07;7.28;;;;;;;13.26;46.63;99006.75;7344337;19;20035;-72
2023/04/25 02:51:09;;;;;;;13.93;7.82;;;;;;;13.30;46.41;99008.16;7352544;19;20006;-78
2023/04/25 02:53:34;;;;;;;21.45;7.45;;;;;;;13.31;46.57;99004.50;7353968;19;20010;-77
2023/04/25 02:55:59;;;;;;;13.57;6.38;;;;;;;13.40;46.42;99003.66;7351513;19;20011;-76
2023/04/25 02:58:24;;;;;;;13.32;5.22;;;;;;;13.51;45.48;98990.09;7347649;19;20023;-76
2023/04/25 03:00:51;;;;;;;12.25;6.65;;;;;;;13.57;46.19;98980.63;7352570;19;20014;-75
2023/04/25 03:03:17;;;;;;;15.60;6.68;;;;;;;13.54;46.95;98983.63;7350632;19;20037;-74
2023/04/25 03:05:43;;;;;;;13.38;6.20;;;;;;;13.60;46.22;98989.22;7347083;19;20046;-75
2023/04/25 03:08:08;;;;;;;10.60;6.53;;;;;;;13.54;46.41;98994.31;7351662;19;20011;-77
2023/04/25 03:10:35;;;;;;;21.98;7.75;;;;;;;13.46;46.63;98987.00;7357475;19;20011;-78
2023/04/25 03:13:04;;;;;;;13.40;6.82;;;;;;;13.43;46.97;98989.97;7353022;19;20021;-78
2023/04/25 03:15:28;;;;;;;13.38;7.95;;;;;;;13.40;46.86;98992.94;7352240;19;20011;-78
2023/04/25 03:17:53;;;;;;;10.80;6.55;;;;;;;13.34;47.10;98994.34;7350846;19;20353;-77
2023/04/25 03:20:18;;;;;;;13.38;7.18;;;;;;;13.38;46.99;98993.06;7352487;19;20015;-77
2023/04/25 03:22:44;;;;;;;14.65;7.22;;;;;;;13.41;46.83;99000.84;7348062;19;20015;-79
2023/04/25 03:25:09;;;;;;;11.10;6.90;;;;;;;13.48;46.82;99010.94;7353180;19;20018;-79
2023/04/25 03:27:34;;;;;;;16.88;7.80;;;;;;;13.48;47.16;99005.59;7348669;19;20506;-72
2023/04/25 03:29:59;;;;;;;16.00;7.53;;;;;;;13.43;47.38;99009.53;7348145;19;20482;-71
2023/04/25 03:32:24;;;;;;;14.85;8.52;;;;;;;13.36;47.76;99019.13;7347596;19;20752;-72
2023/04/25 03:34:49;;;;;;;13.38;7.28;;;;;;;13.33;47.89;99010.53;7344832;19;20493;-71
2023/04/25 03:37:14;;;;;;;18.58;7.25;;;;;;;13.24;48.07;99004.22;7345954;19;20021;-73
2023/04/25 03:39:39;;;;;;;13.00;8.18;;;;;;;13.26;47.95;99006.75;7347036;19;20017;-72
2023/04/25 03:42:05;;;;;;;20.08;8.73;;;;;;;13.35;47.87;99005.88;7347887;19;20015;-73
2023/04/25 03:44:29;;;;;;;19.38;8.68;;;;;;;13.53;47.58;99009.56;7347658;19;20040;-74
2023/04/25 03:46:54;;;;;;;16.02;8.63;;;;;;;13.55;47.32;99001.34;7347972;19;20011;-75
2023/04/25 03:49:19;;;;;;;15.50;9.57;;;;;;;13.66;47.56;99006.53;7343071;19;20078;-65
2023/04/25 03:52:00;;;;;;;19.38;9.20;;;;;;;13.88;46.96;99005.38;7343908;19;20082;-66
2023/04/25 03:54:26;;;;;;;18.50;9.95;;;;;;;14.00;46.55;99013.06;7341233;19;20022;-67
2023/04/25 03:57:00;;;;;;;23.33;8.88;;;;;;;14.04;46.69;99005.59;7340800;19;20086;-66
2023/04/25 03:59:27;;;;;;;18.75;10.30;;;;;;;14.16;46.79;99009.78;7345987;19;20014;-67
2023/04/25 04:01:52;;;;;;;22.00;8.93;;;;;;;14.24;46.57;99004.50;7341133;19;20017;-67
2023/04/25 04:04:17;;;;;;;16.38;9.57;;;;;;;14.33;46.68;99009.00;7344025;19;20021;-66
2023/04/25 04:06:42;;;;;;;20.35;10.38;;;;;;;14.57;46.08;99000.41;7342344;19;20015;-66
2023/04/25 04:09:12;;;;;;;20.50;8.48;;;;;;;14.76;45.77;99008.34;7341635;19;20030;-68
2023/04/25 04:11:40;;;;;;;16.15;9.73;;;;;;;14.92;45.29;99001.44;7342626;19;20014;-66
2023/04/25 04:14:06;;;;;;;16.75;9.52;;;;;;;14.94;45.33;98999.47;7341682;19;20034;-67
2023/04/25 04:16:31;;;;;;;13.23;9.60;;;;;;;15.14;45.16;99003.66;7342300;19;20019;-67
2023/04/25 04:18:56;;;;;;;21.70;9.23;;;;;;;15.31;44.88;99004.66;7342105;19;20015;-69
2023/04/25 04:21:21;;;;;;;21.80;9.13;;;;;;;15.50;44.33;98999.94;7341029;19;20006;-66
2023/04/25 04:23:46;;;;;;;19.98;10.32;;;;;;;15.65;44.12;98994.91;7343856;19;20029;-69
2023/04/25 04:26:12;;;;;;;21.75;9.32;;;;;;;15.87;43.62;98991.69;7341541;19;20033;-66
2023/04/25 04:28:40;;;;;;;22.13;10.02;;;;;;;16.00;43.63;98985.03;7342649;19;20307;-68
2023/04/25 04:31:21;;;;;;;26.70;9.48;;;;;;;16.27;43.11;98992.88;7341501;19;20019;-66
2023/04/25 04:33:47;;;;;;;15.07;9.43;;;;;;;16.48;42.56;98995.97;7340763;19;20397;-66
2023/04/25 04:36:13;;;;;;;15.38;8.60;;;;;;;16.81;42.05;98983.53;7341117;19;20014;-67
2023/04/25 04:38:37;;;;;;;13.10;8.82;;;;;;;17.16;41.23;98986.91;7341548;19;20015;-67
2023/04/25 04:41:03;;;;;;;17.92;9.60;;;;;;;17.32;40.93;99001.25;7341079;19;20015;-68
2023/04/25 04:43:46;;;;;;;28.60;11.82;;;;;;;17.57;40.62;98998.53;7342150;19;20014;-69
2023/04/25 04:46:41;;;;;;;18.38;9.55;;;;;;;17.81;40.23;98995.00;7341464;19;20018;-72
2023/04/25 04:49:32;;;;;;;18.35;10.20;;;;;;;18.12;39.93;98995.94;7339406;19;20017;-72
2023/04/25 04:52:18;;;;;;;27.67;9.88;;;;;;;18.06;39.59;98983.97;7339242;19;20011;-73
2023/04/25 04:55:12;;;;;;;13.57;8.43;;;;;;;18.15;39.62;98987.50;7339718;19;20090;-71
2023/04/25 04:58:03;;;;;;;18.02;9.32;;;;;;;18.13;39.55;98994.94;7341162;19;20082;-71
2023/04/25 05:00:48;;;;;;;;;;;;;;;18.58;39.18;98996.13;7338457;19;20022;-72
2023/04/25 05:03:52;;;;;;;17.42;8.07;;;;;;;18.75;39.16;98985.03;7348609;19;19933;-66
2023/04/25 05:06:35;;;;;;;18.60;9.17;;;;;;;19.45;37.79;98986.75;7350044;19;20019;-66
2023/04/25 05:09:15;;;;;;;16.83;9.90;;;;;;;20.16;37.14;98975.41;7337885;19;20018;-67
2023/04/25 05:12:05;;;;;;;17.45;9.05;;;;;;;20.66;35.81;98977.34;7337982;19;20608;-67
2023/04/25 05:14:48;;;;;;;23.60;14.10;;;;;;;21.29;35.09;98967.63;7339494;19;20233;-69
2023/04/25 05:17:32;;;;;;;19.20;9.77;;;;;;;21.91;34.54;98966.03;7337421;19;20026;-68
2023/04/25 05:20:10;;;;;;;25.05;9.43;;;;;;;22.43;33.65;98969.09;7337828;19;20028;-68
2023/04/25 05:23:04;;;;;;;22.80;8.67;;;;;;;22.76;32.53;98966.53;7335366;19;20485;-68
2023/04/25 05:25:52;;;;;;;14.20;8.32;;;;;;;23.19;31.87;98960.78;7338665;19;20032;-67
2023/04/25 05:28:50;;;;;;;13.77;7.95;;;;;;;23.83;31.16;98966.47;7337420;19;20571;-68
2023/04/25 05:31:36;;;;;;;12.05;8.05;;;;;;;24.16;30.42;98971.00;7337516;19;20500;-66
2023/04/25 05:34:07;;;;;;;18.02;8.52;;;;;;;24.64;29.58;98963.34;7337066;19;20343;-72
2023/04/25 05:36:42;;;;;;;13.90;7.53;;;;;;;25.02;28.63;98957.94;7338647;19;20366;-72
2023/04/25 05:39:08;;;;;;;16.73;7.63;;;;;;;25.44;28.19;98961.00;7338950;19;20029;-73
2023/04/25 05:41:52;;;;;;;;;;;;;;;26.15;28.64;98961.44;7337758;19;20354;-72
2023/04/25 05:44:37;;;;;;;19.08;7.78;;;;;;;26.26;26.60;98951.66;7338352;19;19950;-72
2023/04/25 05:47:22;;;;;;;18.10;7.05;;;;;;;26.35;26.49;98964.81;7338656;19;20035;-72
2023/04/25 05:49:59;;;;;;;18.83;6.25;;;;;;;26.62;25.75;98954.41;7337245;19;20023;-72
2023/04/25 05:52:52;;;;;;;9.73;6.72;;;;;;;26.66;25.56;98961.06;7336382;19;20439;-72
2023/04/25 05:55:43;;;;;;;13.75;6.30;;;;;;;27.02;25.31;98954.72;7337591;19;20014;-73
2023/04/25 05:58:27;;;;;;;13.82;6.80;;;;;;;27.28;24.63;98944.47;7336677;19;20557;-71
2023/04/25 06:00:53;;;;;;;11.07;6.78;;;;;;;26.69;24.42;98951.56;7335186;19;20057;-72
2023/04/25 06:03:17;;;;;;;12.45;6.50;;;;;;;25.52;25.68;98952.53;7335421;19;20014;-73
2023/04/25 06:05:43;;;;;;;12.45;6.72;;;;;;;24.66;26.30;98946.78;7340501;19;20035;-74
2023/04/25 06:08:09;;;;;;;8.60;5.95;;;;;;;24.89;26.27;98942.47;7336909;19;20015;-72
2023/04/25 06:10:36;;;;;;;13.68;6.20;;;;;;;25.20;26.34;98938.94;7336967;19;20021;-72
2023/04/25 06:13:01;;;;;;;7.97;6.28;;;;;;;25.67;25.63;98937.53;7337468;19;20027;-71
2023/04/25 06:15:28;;;;;;;12.20;6.00;;;;;;;26.28;25.07;98925.81;7336442;19;20474;-73
2023/04/25 06:17:53;;;;;;;13.65;6.75;;;;;;;26.99;24.12;98930.56;7335937;19;20403;-73
2023/04/25 06:20:18;;;;;;;15.43;6.18;;;;;;;27.73;23.43;98923.72;7345833;19;20081;-74
2023/04/25 06:22:42;;;;;;;15.50;8.02;;;;;;;28.12;23.25;98921.31;7343550;19;20006;-73
2023/04/25 06:25:08;;;;;;;9.80;6.40;;;;;;;28.52;22.75;98916.75;7344885;19;20026;-73
2023/04/25 06:27:34;;;;;;;8.68;5.80;;;;;;;29.41;21.95;98910.75;7344673;19;20058;-72
2023/04/25 06:30:00;;;;;;;9.80;6.32;;;;;;;30.47;21.00;98917.84;7346210;19;20015;-73
2023/04/25 06:32:30;;;;;;;10.07;6.50;;;;;;;31.05;20.33;98913.56;7346935;19;20026;-73
2023/04/25 06:34:57;;;;;;;12.63;7.32;;;;;;;31.76;19.78;98900.47;7346020;19;20026;-73
2023/04/25 06:37:22;;;;;;;10.65;5.82;;;;;;;32.68;19.11;98913.66;7348438;19;20026;-72
2023/04/25 06:39:49;;;;;;;11.13;5.75;;;;;;;33.51;18.20;98908.91;7345862;19;20014;-73
2023/04/25 06:42:13;;;;;;;14.75;6.68;;;;;;;34.31;17.51;98911.88;7343859;19;20099;-72
2023/04/25 06:44:50;;;;;;;13.38;6.60;;;;;;;34.95;17.21;98911.03;7346585;19;20462;-73
2023/04/25 06:47:16;;;;;;;12.13;6.82;;;;;;;35.13;16.69;98915.88;7345749;19;20055;-73
2023/04/25 06:49:41;;;;;;;10.35;6.22;;;;;;;34.98;17.21;98920.72;7346849;19;20125;-72
2023/04/25 06:52:08;;;;;;;10.02;6.57;;;;;;;35.26;16.89;98922.75;7348607;19;20015;-75
2023/04/25 06:54:32;;;;;;;6.20;5.60;;;;;;;35.80;16.62;98913.47;7347490;19;20017;-74
2023/04/25 06:57:03;;;;;;;9.80;5.88;;;;;;;35.76;16.31;98913.25;7348911;19;20085;-74
2023/04/25 06:59:30;;;;;;;11.63;6.63;;;;;;;35.75;16.67;98913.53;7344048;19;20338;-74
2023/04/25 07:01:54;;;;;;;7.28;5.55;;;;;;;35.84;16.21;98912.59;7343782;19;20015;-73
2023/04/25 07:04:23;;;;;;;10.23;7.18;;;;;;;35.76;16.14;98915.19;7345747;19;20019;-72
2023/04/25 07:06:52;;;;;;;11.35;6.40;;;;;;;36.15;16.24;98929.75;7345196;19;20343;-73
2023/04/25 07:09:22;;;;;;;13.15;6.55;;;;;;;36.51;16.06;98918.28;7349291;19;20100;-73
2023/04/25 07:11:48;;;;;;;7.03;5.93;;;;;;;37.05;15.79;98918.66;7344379;19;20362;-74
2023/04/25 07:14:13;;;;;;;12.63;6.72;;;;;;;37.49;15.20;98911.88;7344535;19;20334;-72
2023/04/25 07:16:38;;;;;;;8.20;6.47;;;;;;;37.91;15.17;98904.53;7344572;19;20454;-74
2023/04/25 07:19:03;;;;;;;11.60;6.68;;;;;;;38.07;14.91;98903.94;7344225;19;20483;-68
2023/04/25 07:21:28;;;;;;;10.70;6.03;;;;;;;38.48;14.93;98909.56;7344137;19;20618;-68
2023/04/25 07:23:54;;;;;;;12.15;7.80;;;;;;;38.41;14.49;98914.69;7344431;19;20021;-68
2023/04/25 07:26:24;;;;;;;13.13;6.47;;;;;;;38.75;14.54;98903.13;7345512;19;20472;-70
2023/04/25 07:29:07;;;;;;;;;;;;;;;40.33;14.22;98919.63;7346860;19;20019;-67
2023/04/25 07:31:32;;;;;;;8.43;6.70;;;;;;;38.13;14.22;98901.91;7345581;19;19915;-68
2023/04/25 07:33:57;;;;;;;14.15;6.88;;;;;;;36.67;14.51;98900.31;7344361;19;20019;-69
2023/04/25 07:36:21;;;;;;;10.90;5.70;;;;;;;36.01;15.40;98907.41;7345320;19;20019;-70
2023/04/25 07:38:46;;;;;;;15.90;6.13;;;;;;;36.47;15.62;98903.31;7345292;19;20045;-67
2023/04/25 07:41:11;;;;;;;12.75;7.13;;;;;;;36.66;15.63;98898.66;7344471;19;20074;-69
2023/04/25 07:43:35;;;;;;;11.90;7.18;;;;;;;37.21;15.52;98902.63;7345798;19;20018;-70
2023/04/25 07:46:02;;;;;;;14.60;7.05;;;;;;;37.95;15.04;98899.97;7345839;19;20015;-69
2023/04/25 07:48:29;;;;;;;14.68;7.55;;;;;;;37.65;14.65;98904.16;7346705;19;20082;-69
2023/04/25 07:50:54;;;;;;;12.15;7.07;;;;;;;37.65;14.92;98898.59;7345857;19;20466;-69
2023/04/25 07:53:19;;;;;;;10.48;7.88;;;;;;;37.67;14.92;98908.28;7346455;19;20444;-71
2023/04/25 07:55:58;;;;;;;23.15;9.38;;;;;;;36.89;15.25;98895.03;7351188;19;20345;-70
2023/04/25 07:58:22;;;;;;;10.70;7.57;;;;;;;36.12;15.98;98913.69;7353090;19;20457;-69
2023/04/25 08:00:51;;;;;;;13.82;7.55;;;;;;;33.61;16.95;98910.81;7344750;19;20017;-72
2023/04/25 08:03:34;;;;;;;14.37;7.87;;;;;;;30.13;19.57;98910.81;7343793;19;20011;-73
2023/04/25 08:06:02;;;;;;;10.80;7.85;;;;;;;28.99;20.87;98897.38;7342079;19;20871;-73
2023/04/25 08:08:30;;;;;;;18.48;6.85;;;;;;;29.41;20.39;98908.00;7342262;19;20014;-71
2023/04/25 08:10:55;;;;;;;13.90;6.60;;;;;;;28.48;21.30;98901.84;7342443;19;20083;-70
2023/04/25 08:13:20;;;;;;;11.02;7.28;;;;;;;27.90;21.72;98901.91;7342600;19;20086;-72
2023/04/25 08:15:45;;;;;;;13.68;5.53;;;;;;;27.43;22.25;98922.94;7343902;19;20025;-66
2023/04/25 08:18:10;;;;;;;10.65;6.43;;;;;;;25.60;24.01;98919.53;7346040;19;20018;-66
2023/04/25 08:20:34;;;;;;;8.70;6.47;;;;;;;24.21;26.05;98903.13;7342521;19;20027;-66
2023/04/25 08:23:02;;;;;;;17.95;6.03;;;;;;;23.64;26.92;98904.72;7339499;19;20007;-66
2023/04/25 08:25:39;;;;;;;9.70;5.40;;;;;;;23.24;27.47;98914.78;7341109;19;20051;-65
2023/04/25 08:28:03;;;;;;;9.20;6.00;;;;;;;22.72;28.07;98910.03;7341083;19;20022;-67
2023/04/25 08:30:30;;;;;;;15.32;6.05;;;;;;;22.29;28.81;98904.88;7342065;19;20019;-66
2023/04/25 08:32:54;;;;;;;13.02;5.82;;;;;;;22.03;29.19;98912.88;7345841;19;20015;-66
2023/04/25 08:35:44;;;;;;;9.77;5.97;;;;;;;21.67;29.84;98904.94;7341488;19;20497;-68
2023/04/25 08:38:09;;;;;;;10.82;6.00;;;;;;;21.66;29.79;98892.41;7341510;19;20592;-68
2023/04/25 08:40:38;;;;;;;13.45;6.13;;;;;;;22.80;28.75;98909.88;7341643;19;20845;-68
2023/04/25 08:43:14;;;;;;;16.75;6.45;;;;;;;24.74;27.10;98898.28;7340743;19;20044;-69
2023/04/25 08:45:41;;;;;;;12.23;5.30;;;;;;;27.31;24.49;98889.25;7340924;19;20454;-69
2023/04/25 08:48:11;;;;;;;17.13;5.38;;;;;;;29.49;22.53;98883.69;7341351;19;20018;-69
2023/04/25 08:50:44;;;;;;;9.25;5.20;;;;;;;30.62;20.85;98881.47;7343251;19;20816;-68
2023/04/25 08:53:16;;;;;;;13.50;6.22;;;;;;;31.03;20.48;98878.06;7343079;19;20041;-69
2023/04/25 08:55:46;;;;;;;25.77;8.30;;;;;;;32.21;19.59;98871.53;7341198;19;20078;-71
2023/04/25 08:58:11;;;;;;;6.30;5.35;;;;;;;33.12;18.91;98872.66;7341214;19;20397;-67
2023/04/25 09:00:36;;;;;;;11.43;5.57;;;;;;;34.07;18.04;98872.06;7339093;19;20346;-68
2023/04/25 09:03:01;;;;;;;9.38;6.38;;;;;;;32.97;18.53;98863.50;7339250;19;20029;-69
2023/04/25 09:05:30;;;;;;;9.77;5.65;;;;;;;31.82;19.68;98860.84;7339853;19;20019;-69
2023/04/25 09:07:56;;;;;;;10.15;5.45;;;;;;;31.98;18.77;98848.78;7341847;19;20023;-69
2023/04/25 09:10:21;;;;;;;13.90;6.35;;;;;;;31.15;19.61;98861.41;7346119;19;20014;-69
2023/04/25 09:13:05;;;;;;;7.15;5.10;;;;;;;31.97;19.52;98877.44;7342087;19;20017;-70
2023/04/25 09:15:32;;;;;;;8.80;5.97;;;;;;;31.75;19.23;98862.97;7342040;19;20487;-71
2023/04/25 09:18:21;;;;;;;10.10;5.28;;;;;;;31.55;19.39;98854.53;7340801;19;20014;-71
2023/04/25 09:20:46;;;;;;;7.57;5.60;;;;;;;30.29;20.39;98855.75;7340324;19;20050;-72
2023/04/25 09:23:10;;;;;;;11.82;6.20;;;;;;;29.49;21.15;98855.41;7339884;19;20018;-69
2023/04/25 09:25:40;;;;;;;9.40;5.70;;;;;;;28.39;22.22;98847.63;7340062;19;20029;-65
2023/04/25 09:28:07;;;;;;;11.07;5.70;;;;;;;27.79;22.65;98837.84;7339040;19;20014;-66
2023/04/25 09:30:36;;;;;;;11.60;5.40;;;;;;;26.71;23.58;98857.31;7341527;19;20576;-66
2023/04/25 09:33:16;;;;;;;9.07;5.45;;;;;;;25.57;24.33;98844.38;7339491;19;20022;-65
2023/04/25 09:35:45;;;;;;;14.15;6.28;;;;;;;24.61;25.73;98852.03;7339913;19;20327;-67
2023/04/25 09:38:23;;;;;;;8.85;4.78;;;;;;;25.17;25.35;98849.34;7339957;19;20029;-66
2023/04/25 09:41:11;;;;;;;5.47;4.63;;;;;;;27.10;23.00;98839.47;7340865;19;20018;-67
2023/04/25 09:43:46;;;;;;;10.47;5.30;;;;;;;28.57;21.96;98841.13;7339734;19;20047;-67
2023/04/25 09:46:11;;;;;;;8.77;5.50;;;;;;;29.74;20.44;98825.56;7338455;19;20011;-67
2023/04/25 09:48:40;;;;;;;14.05;5.35;;;;;;;30.60;20.22;98829.44;7341612;19;20017;-66
2023/04/25 09:51:13;;;;;;;9.48;5.07;;;;;;;32.34;18.82;98822.22;7343557;19;20018;-67
2023/04/25 09:53:41;;;;;;;8.35;5.70;;;;;;;33.51;17.67;98817.69;7354654;19;20504;-71
2023/04/25 09:56:20;;;;;;;10.57;6.43;;;;;;;33.75;17.10;98819.88;7350039;19;20018;-73
2023/04/25 09:58:47;;;;;;;7.70;5.45;;;;;;;33.63;17.35;98822.09;7347010;19;20026;-72
2023/04/25 10:01:12;;;;;;;16.98;6.47;;;;;;;31.65;18.44;98824.31;7347859;19;20010;-69
2023/04/25 10:03:56;;;;;;;9.13;5.65;;;;;;;30.90;19.17;98823.41;7349618;19;20022;-71
2023/04/25 10:06:37;;;;;;;17.30;5.60;;;;;;;28.97;20.87;98828.19;7347116;19;20018;-70
2023/04/25 10:09:03;;;;;;;6.90;4.88;;;;;;;28.23;20.69;98808.09;7344862;19;20014;-71
2023/04/25 10:11:28;;;;;;;6.82;4.47;;;;;;;27.91;20.95;98815.09;7346369;19;20123;-71
2023/04/25 10:13:53;;;;;;;6.60;4.70;;;;;;;27.56;21.30;98813.22;7347004;19;20010;-72
2023/04/25 10:16:18;;;;;;;10.73;4.90;;;;;;;26.92;21.83;98823.16;7347911;19;20022;-73
2023/04/25 10:18:43;;;;;;;10.60;4.80;;;;;;;25.22;23.41;98807.75;7346742;19;20014;-74
2023/04/25 10:21:08;;;;;;;10.10;5.18;;;;;;;24.61;24.39;98808.41;7347028;19;20013;-73
2023/04/25 10:23:34;;;;;;;13.63;5.22;;;;;;;23.91;25.10;98807.53;7344379;19;20006;-72
2023/04/25 10:26:00;;;;;;;8.25;5.60;;;;;;;23.11;26.09;98806.00;7345232;19;20019;-72
2023/04/25 10:28:25;;;;;;;7.65;5.30;;;;;;;22.72;26.59;98804.06;7342982;19;20025;-72
2023/04/25 10:30:58;;;;;;;6.85;5.03;;;;;;;22.75;26.72;98803.66;7344290;19;20102;-72
2023/04/25 10:33:33;;;;;;;6.75;5.18;;;;;;;22.65;26.70;98805.94;7345395;19;20034;-72
2023/04/25 10:35:58;;;;;;;8.90;5.88;;;;;;;22.37;27.39;98795.22;7349531;19;20042;-71
2023/04/25 10:38:22;;;;;;;7.78;4.97;;;;;;;22.02;28.09;98800.75;7349189;19;20130;-72
2023/04/25 10:41:04;;;;;;;21.92;5.00;;;;;;;22.13;27.96;98793.91;7346905;19;20509;-73
2023/04/25 10:43:33;;;;;;;11.27;5.15;;;;;;;21.50;29.05;98803.19;7349130;19;20015;-74
2023/04/25 10:46:02;;;;;;;8.15;5.57;;;;;;;21.00;29.58;98792.41;7348132;19;20092;-72
2023/04/25 10:48:29;;;;;;;11.50;5.55;;;;;;;20.62;29.98;98786.47;7349811;19;20326;-72
2023/04/25 10:51:10;;;;;;;11.15;5.68;;;;;;;20.67;30.06;98783.16;7348929;19;20040;-73
2023/04/25 10:53:35;;;;;;;7.40;4.93;;;;;;;20.30;30.60;98770.72;7348400;19;20022;-73
2023/04/25 10:56:00;;;;;;;6.93;3.95;;;;;;;20.37;30.92;98766.22;7346255;19;20019;-68
2023/04/25 10:58:27;;;;;;;7.45;4.85;;;;;;;20.59;31.03;98776.03;7349012;19;20018;-68
2023/04/25 11:00:52;;;;;;;5.65;4.45;;;;;;;20.59;30.86;98776.03;7343375;19;20070;-69
2023/04/25 11:03:16;;;;;;;7.82;4.53;;;;;;;20.67;30.88;98769.63;7343646;19;20074;-67
2023/04/25 11:05:45;;;;;;;10.88;4.60;;;;;;;20.61;31.15;98763.13;7343503;19;20358;-72
2023/04/25 11:08:17;;;;;;;9.07;4.10;;;;;;;20.83;31.37;98758.50;7347787;19;20006;-73
2023/04/25 11:10:42;;;;;;;8.35;4.30;;;;;;;21.08;30.66;98758.91;7345046;19;20034;-72
2023/04/25 11:13:06;;;;;;;7.15;4.20;;;;;;;21.22;30.33;98749.84;7346649;19;20022;-72
2023/04/25 11:15:31;;;;;;;8.02;4.03;;;;;;;21.38;30.60;98749.53;7346409;19;20014;-70
2023/04/25 11:17:56;;;;;;;6.85;4.88;;;;;;;21.53;30.23;98746.69;7345284;19;20021;-71
2023/04/25 11:20:22;;;;;;;5.80;4.70;;;;;;;21.87;29.58;98751.22;7344886;19;20021;-66
2023/04/25 11:22:47;;;;;;;7.97;4.45;;;;;;;21.55;29.76;98751.91;7343184;19;20049;-69
2023/04/25 11:25:14;;;;;;;8.07;4.30;;;;;;;21.26;30.11;98747.56;7345923;19;20063;-71
2023/04/25 11:28:01;;;;;;;4.60;3.78;;;;;;;21.26;30.13;98743.00;7346770;19;20035;-71
2023/04/25 11:30:26;;;;;;;9.45;4.18;;;;;;;20.98;30.60;98736.75;7347129;19;20026;-71
2023/04/25 11:32:51;;;;;;;6.25;4.57;;;;;;;20.80;30.84;98728.25;7348972;19;20021;-70
2023/04/25 11:35:16;;;;;;;7.03;4.10;;;;;;;20.64;31.28;98730.25;7349539;19;20014;-72